»·PEaware :: DAL2189 KSLC-KPDX

DAL2189 :: KSLC-KPDX

FLIGHT INFORMATION

Flight Status: Arrived
Operator:
Delta Air Lines
More flights by this operator :: More flights under this callsign
Pilot: Joe P. (13940)
Aircraft: BOEING 737-700
(B737)
More flights by this aircraft type
Origin: KSLC Salt Lake City Intl
United States
Destination: KPDX Portland Intl
United States
More flights between these airports :: More routes between these airports
Route: CGULL1 TWF J15 BOI J163 BKE JOTBA HHOOD4
File this flight plan on PilotEdge
Remarks: KSEA -PBN / A1B1C1D1L1O1S1 NAV / RNVD1E2A1 DOF / 180903 REG / N389DA EET / KZSE0055 RVR / 200 PER / C
Altitude:
(Current/Filed)
360ft
Speed:
(Current/Filed)
452kts
Departed: 08-Sep-18 06:20 AM
Arrived: 08-Sep-18 07:55 AM
Distance/Time
Traveled:
546nm/1:35
Distance/Time
To Go:
Arrived

Flight Plot

Page will automatically refresh every two minutes.

Flight plan parsing failed; only flown route is shown


Map Options




Map Legend


Flown Route
Filed Route
Departure Airport
Arrival Airport
Navaid (VOR, NDB)
Fix

Horizontal Profiles

Position Reports

Time Latitude Longitude Heading Altitude Ground
Speed
08-Sep-18 06:11 40.788334 -111.979598 282 4235ft 0kts
08-Sep-18 06:12 40.788334 -111.979600 282 4235ft 0kts
08-Sep-18 06:13 40.788334 -111.979601 282 4235ft 0kts
08-Sep-18 06:14 40.788335 -111.979603 282 4235ft 0kts
08-Sep-18 06:15 40.788356 -111.979666 299 4235ft 2kts
08-Sep-18 06:16 40.789733 -111.977694 64 4235ft 10kts
08-Sep-18 06:17 40.794889 -111.977729 355 4235ft 25kts
08-Sep-18 06:18 40.802003 -111.978547 354 4235ft 22kts
08-Sep-18 06:19 40.805673 -111.978970 355 4235ft 6kts
08-Sep-18 06:20 40.807002 -111.976837 160 4235ft 12kts
08-Sep-18 06:21 40.806752 -111.976787 176 4235ft 0kts
08-Sep-18 06:22 40.791375 -111.975068 174 4259ft 163kts
08-Sep-18 06:23 40.758995 -112.009608 276 6607ft 220kts
08-Sep-18 06:24 40.813492 -112.068563 328 8144ft 295kts
08-Sep-18 06:25 40.875070 -112.142606 310 11182ft 307kts
08-Sep-18 06:26 40.938812 -112.234682 309 12777ft 365kts
08-Sep-18 06:27 41.007631 -112.335029 309 15615ft 371kts
08-Sep-18 06:28 41.080512 -112.433358 319 18281ft 381kts
08-Sep-18 06:29 41.171734 -112.511699 322 20402ft 398kts
08-Sep-18 06:30 41.260737 -112.602209 318 22287ft 408kts
08-Sep-18 06:31 41.340733 -112.711028 308 23912ft 416kts
08-Sep-18 06:32 41.418766 -112.826472 307 25582ft 421kts
08-Sep-18 06:33 41.495892 -112.944847 306 27114ft 425kts
08-Sep-18 06:34 41.573533 -113.064440 306 28552ft 427kts
08-Sep-18 06:35 41.651348 -113.184619 305 30033ft 424kts
08-Sep-18 06:36 41.727850 -113.302410 304 31667ft 417kts
08-Sep-18 06:37 41.803194 -113.419330 304 33088ft 413kts
08-Sep-18 06:38 41.877590 -113.535374 303 34430ft 409kts
08-Sep-18 06:39 41.951204 -113.650703 302 35719ft 404kts
08-Sep-18 06:40 42.024680 -113.765744 302 36103ft 405kts
08-Sep-18 06:41 42.097181 -113.880448 302 36096ft 402kts
08-Sep-18 06:42 42.169734 -113.995638 302 36094ft 402kts
08-Sep-18 06:43 42.242320 -114.110608 302 36093ft 402kts
08-Sep-18 06:44 42.315124 -114.225687 302 36092ft 402kts
08-Sep-18 06:45 42.387477 -114.341104 302 36090ft 403kts
08-Sep-18 06:46 42.459648 -114.456906 302 36090ft 402kts
08-Sep-18 06:47 42.532722 -114.571288 302 36090ft 402kts
08-Sep-18 06:48 42.606534 -114.685813 302 36094ft 403kts
08-Sep-18 06:49 42.680154 -114.800684 302 36095ft 402kts
08-Sep-18 06:50 42.753672 -114.915028 302 36103ft 402kts
08-Sep-18 06:51 42.827175 -115.029846 302 36105ft 402kts
08-Sep-18 06:52 42.900505 -115.145093 302 36102ft 402kts
08-Sep-18 06:53 42.973799 -115.260831 302 36097ft 403kts
08-Sep-18 06:54 43.046833 -115.376647 302 36088ft 402kts
08-Sep-18 06:54 43.107845 -115.473761 301 36083ft 402kts
08-Sep-18 06:55 43.180698 -115.590155 302 36080ft 403kts
08-Sep-18 06:57 43.265653 -115.726480 302 36080ft 403kts
08-Sep-18 06:58 43.338438 -115.843785 301 36082ft 403kts
08-Sep-18 06:58 43.398979 -115.941201 301 36085ft 404kts
08-Sep-18 06:59 43.471590 -116.059328 301 36083ft 403kts
08-Sep-18 07:00 43.543956 -116.177389 303 36079ft 405kts
08-Sep-18 07:01 43.628151 -116.284182 309 36079ft 413kts
08-Sep-18 07:02 43.713963 -116.389397 309 36080ft 413kts
08-Sep-18 07:03 43.799949 -116.495393 309 36079ft 412kts
08-Sep-18 07:04 43.885674 -116.600588 309 36074ft 413kts
08-Sep-18 07:05 43.971475 -116.706608 309 36073ft 413kts
08-Sep-18 07:06 44.057329 -116.813309 309 36072ft 414kts
08-Sep-18 07:07 44.143086 -116.920336 309 36073ft 415kts
08-Sep-18 07:08 44.228965 -117.027990 310 36077ft 415kts
08-Sep-18 07:09 44.315051 -117.136352 309 36098ft 416kts
08-Sep-18 07:10 44.400580 -117.244471 309 36118ft 414kts
08-Sep-18 07:12 44.486014 -117.352915 309 36135ft 414kts
08-Sep-18 07:13 44.571148 -117.461431 309 36150ft 414kts
08-Sep-18 07:14 44.656547 -117.570311 309 36161ft 414kts
08-Sep-18 07:15 44.741732 -117.679951 309 36167ft 415kts
08-Sep-18 07:16 44.823694 -117.793013 296 36169ft 403kts
08-Sep-18 07:17 44.855237 -117.939964 278 36169ft 391kts
08-Sep-18 07:18 44.876393 -118.090412 277 36170ft 391kts
08-Sep-18 07:19 44.896262 -118.241413 277 36171ft 391kts
08-Sep-18 07:20 44.916165 -118.392601 277 36174ft 393kts
08-Sep-18 07:21 44.935723 -118.544363 277 36176ft 393kts
08-Sep-18 07:22 44.954879 -118.696291 277 36180ft 393kts
08-Sep-18 07:23 44.973708 -118.847869 277 36180ft 392kts
08-Sep-18 07:24 44.992333 -118.999821 276 36169ft 392kts
08-Sep-18 07:25 45.010815 -119.152406 276 36167ft 393kts
08-Sep-18 07:26 45.029068 -119.304893 276 36165ft 393kts
08-Sep-18 07:27 45.047062 -119.457010 276 36167ft 393kts
08-Sep-18 07:28 45.064932 -119.609900 276 36165ft 394kts
08-Sep-18 07:29 45.082648 -119.763321 276 35650ft 391kts
08-Sep-18 07:30 45.100064 -119.916002 276 32775ft 396kts
08-Sep-18 07:31 45.117307 -120.068854 276 30422ft 388kts
08-Sep-18 07:32 45.134129 -120.217016 276 28360ft 377kts
08-Sep-18 07:33 45.149913 -120.362086 276 26349ft 368kts
08-Sep-18 07:34 45.167124 -120.504145 284 24381ft 365kts
08-Sep-18 07:35 45.211616 -120.634907 294 22766ft 370kts
08-Sep-18 07:36 45.260469 -120.761681 294 21225ft 363kts
08-Sep-18 07:37 45.308209 -120.886434 294 19718ft 356kts
08-Sep-18 07:38 45.354899 -121.009336 294 18236ft 350kts
08-Sep-18 07:39 45.400886 -121.130415 294 16585ft 344kts
08-Sep-18 07:40 45.438962 -121.252159 282 15165ft 332kts
08-Sep-18 07:41 45.462988 -121.376929 282 13798ft 318kts
08-Sep-18 07:42 45.486596 -121.495942 283 12496ft 305kts
08-Sep-18 07:43 45.509014 -121.610105 283 11247ft 288kts
08-Sep-18 07:44 45.528994 -121.716348 278 10157ft 272kts
08-Sep-18 07:45 45.533571 -121.819958 272 9457ft 252kts
08-Sep-18 07:46 45.536671 -121.913349 272 8977ft 225kts
08-Sep-18 07:47 45.540655 -122.002360 274 7769ft 229kts
08-Sep-18 07:48 45.520549 -122.086898 235 6264ft 225kts
08-Sep-18 07:49 45.487030 -122.152487 236 5597ft 183kts
08-Sep-18 07:50 45.463865 -122.213128 247 4848ft 173kts
08-Sep-18 07:51 45.470506 -122.276827 297 3995ft 171kts
08-Sep-18 07:52 45.493287 -122.335659 298 3638ft 162kts
08-Sep-18 07:53 45.514977 -122.391152 298 2788ft 166kts
08-Sep-18 07:54 45.536723 -122.446782 298 1917ft 154kts
08-Sep-18 07:55 45.557517 -122.500035 299 1104ft 150kts
08-Sep-18 07:56 45.577953 -122.552351 298 220ft 157kts
08-Sep-18 07:57 45.593795 -122.593153 300 26ft 31kts
08-Sep-18 07:58 45.594251 -122.595467 227 26ft 0kts
08-Sep-18 07:59 45.593611 -122.596369 221 26ft 12kts
08-Sep-18 08:00 45.591889 -122.597329 133 26ft 0kts
08-Sep-18 08:01 45.591518 -122.593990 202 26ft 7kts
08-Sep-18 08:02 45.591269 -122.594140 203 26ft 0kts
08-Sep-18 08:03 45.591269 -122.594140 203 26ft 0kts
08-Sep-18 08:04 45.591269 -122.594140 203 26ft 0kts
08-Sep-18 08:05 45.591269 -122.594140 203 26ft 0kts
08-Sep-18 08:06 45.591269 -122.594140 203 26ft 0kts
08-Sep-18 08:07 45.591269 -122.594140 203 26ft 0kts
08-Sep-18 08:08 45.591269 -122.594140 203 26ft 0kts
08-Sep-18 08:09 45.591269 -122.594140 203 26ft 0kts
08-Sep-18 08:10 45.591269 -122.594140 203 26ft 0kts
08-Sep-18 08:11 45.591269 -122.594140 203 26ft 0kts

Navigation Log

Ident Type
Flight plan parsing failed, navigation log unavailable